sensor_id;sensor_type;location;lat;lon;timestamp;P1;durP1;ratioP1;P2;durP2;ratioP2
48327;SDS011;34136;51.022;7.082;2023-02-24T00:01:38;41.50;;;28.00;;
48327;SDS011;34136;51.022;7.082;2023-02-24T00:04:29;41.50;;;27.85;;
48327;SDS011;34136;51.022;7.082;2023-02-24T00:07:17;39.97;;;26.27;;
48327;SDS011;34136;51.022;7.082;2023-02-24T00:10:04;44.60;;;26.67;;
48327;SDS011;34136;51.022;7.082;2023-02-24T00:12:50;41.05;;;25.55;;
48327;SDS011;34136;51.022;7.082;2023-02-24T00:15:36;37.10;;;25.00;;
48327;SDS011;34136;51.022;7.082;2023-02-24T00:18:22;40.28;;;25.60;;
48327;SDS011;34136;51.022;7.082;2023-02-24T00:21:10;39.53;;;25.30;;
48327;SDS011;34136;51.022;7.082;2023-02-24T00:23:58;38.78;;;26.55;;
48327;SDS011;34136;51.022;7.082;2023-02-24T00:26:45;46.50;;;28.10;;
48327;SDS011;34136;51.022;7.082;2023-02-24T00:29:35;42.92;;;28.65;;
48327;SDS011;34136;51.022;7.082;2023-02-24T00:32:21;52.88;;;33.00;;
48327;SDS011;34136;51.022;7.082;2023-02-24T00:35:08;57.13;;;38.45;;
48327;SDS011;34136;51.022;7.082;2023-02-24T00:37:54;61.08;;;37.58;;
48327;SDS011;34136;51.022;7.082;2023-02-24T00:40:40;59.28;;;37.33;;
48327;SDS011;34136;51.022;7.082;2023-02-24T00:43:26;61.05;;;38.17;;
48327;SDS011;34136;51.022;7.082;2023-02-24T00:46:13;61.05;;;36.72;;
48327;SDS011;34136;51.022;7.082;2023-02-24T00:49:07;55.20;;;35.90;;
48327;SDS011;34136;51.022;7.082;2023-02-24T00:51:56;56.90;;;37.85;;
48327;SDS011;34136;51.022;7.082;2023-02-24T00:54:43;56.88;;;36.05;;
48327;SDS011;34136;51.022;7.082;2023-02-24T00:57:30;61.67;;;36.97;;
48327;SDS011;34136;51.022;7.082;2023-02-24T01:00:17;58.55;;;36.22;;
48327;SDS011;34136;51.022;7.082;2023-02-24T01:03:03;56.15;;;35.72;;
48327;SDS011;34136;51.022;7.082;2023-02-24T01:05:49;55.17;;;36.00;;
48327;SDS011;34136;51.022;7.082;2023-02-24T01:08:39;52.08;;;33.75;;
48327;SDS011;34136;51.022;7.082;2023-02-24T01:11:27;56.20;;;34.50;;
48327;SDS011;34136;51.022;7.082;2023-02-24T01:14:19;54.13;;;34.77;;
48327;SDS011;34136;51.022;7.082;2023-02-24T01:17:07;58.10;;;35.38;;
48327;SDS011;34136;51.022;7.082;2023-02-24T01:19:53;54.00;;;33.42;;
48327;SDS011;34136;51.022;7.082;2023-02-24T01:22:42;58.05;;;34.20;;
48327;SDS011;34136;51.022;7.082;2023-02-24T01:25:29;55.15;;;32.88;;
48327;SDS011;34136;51.022;7.082;2023-02-24T01:28:16;53.42;;;32.47;;
48327;SDS011;34136;51.022;7.082;2023-02-24T01:31:03;47.90;;;30.17;;
48327;SDS011;34136;51.022;7.082;2023-02-24T01:33:50;50.55;;;30.25;;
48327;SDS011;34136;51.022;7.082;2023-02-24T01:36:37;49.15;;;30.85;;
48327;SDS011;34136;51.022;7.082;2023-02-24T01:39:25;50.10;;;28.75;;
48327;SDS011;34136;51.022;7.082;2023-02-24T01:42:13;55.75;;;29.30;;
48327;SDS011;34136;51.022;7.082;2023-02-24T01:45:03;52.63;;;27.75;;
48327;SDS011;34136;51.022;7.082;2023-02-24T01:47:52;53.60;;;29.77;;
48327;SDS011;34136;51.022;7.082;2023-02-24T01:50:42;46.58;;;29.65;;
48327;SDS011;34136;51.022;7.082;2023-02-24T01:53:29;53.65;;;30.05;;
48327;SDS011;34136;51.022;7.082;2023-02-24T01:56:16;50.97;;;29.90;;
48327;SDS011;34136;51.022;7.082;2023-02-24T01:59:02;56.08;;;30.55;;
48327;SDS011;34136;51.022;7.082;2023-02-24T02:01:49;56.88;;;31.58;;
48327;SDS011;34136;51.022;7.082;2023-02-24T02:04:38;61.72;;;32.35;;
48327;SDS011;34136;51.022;7.082;2023-02-24T02:07:35;65.93;;;32.80;;
48327;SDS011;34136;51.022;7.082;2023-02-24T02:10:24;54.85;;;32.22;;
48327;SDS011;34136;51.022;7.082;2023-02-24T02:13:11;58.88;;;33.08;;
48327;SDS011;34136;51.022;7.082;2023-02-24T02:19:18;60.08;;;31.20;;
48327;SDS011;34136;51.022;7.082;2023-02-24T02:26:50;58.78;;;34.28;;
48327;SDS011;34136;51.022;7.082;2023-02-24T02:35:53;70.40;;;35.10;;
48327;SDS011;34136;51.022;7.082;2023-02-24T02:41:46;64.10;;;34.35;;
48327;SDS011;34136;51.022;7.082;2023-02-24T02:44:38;63.90;;;35.85;;
48327;SDS011;34136;51.022;7.082;2023-02-24T02:50:44;54.53;;;29.75;;
48327;SDS011;34136;51.022;7.082;2023-02-24T02:53:33;55.05;;;29.77;;
48327;SDS011;34136;51.022;7.082;2023-02-24T02:56:50;55.47;;;28.30;;
48327;SDS011;34136;51.022;7.082;2023-02-24T02:59:46;53.85;;;27.40;;
48327;SDS011;34136;51.022;7.082;2023-02-24T03:02:37;56.72;;;26.15;;
48327;SDS011;34136;51.022;7.082;2023-02-24T03:09:13;48.03;;;21.08;;
48327;SDS011;34136;51.022;7.082;2023-02-24T03:12:09;36.63;;;18.85;;
48327;SDS011;34136;51.022;7.082;2023-02-24T03:15:01;41.67;;;18.35;;
48327;SDS011;34136;51.022;7.082;2023-02-24T03:17:52;40.20;;;18.02;;
48327;SDS011;34136;51.022;7.082;2023-02-24T03:20:49;39.33;;;14.80;;
48327;SDS011;34136;51.022;7.082;2023-02-24T03:23:42;37.60;;;15.77;;
48327;SDS011;34136;51.022;7.082;2023-02-24T03:29:33;37.95;;;14.55;;
48327;SDS011;34136;51.022;7.082;2023-02-24T03:32:28;32.72;;;13.13;;
48327;SDS011;34136;51.022;7.082;2023-02-24T03:38:10;37.58;;;13.27;;
48327;SDS011;34136;51.022;7.082;2023-02-24T03:40:58;35.78;;;12.15;;
48327;SDS011;34136;51.022;7.082;2023-02-24T03:43:48;36.78;;;11.82;;
48327;SDS011;34136;51.022;7.082;2023-02-24T03:46:35;34.72;;;11.18;;
48327;SDS011;34136;51.022;7.082;2023-02-24T03:49:22;28.15;;;9.02;;
48327;SDS011;34136;51.022;7.082;2023-02-24T03:58:27;25.98;;;7.15;;
48327;SDS011;34136;51.022;7.082;2023-02-24T04:01:31;29.10;;;6.93;;
48327;SDS011;34136;51.022;7.082;2023-02-24T04:04:44;21.70;;;6.20;;
48327;SDS011;34136;51.022;7.082;2023-02-24T04:07:57;24.42;;;7.18;;
48327;SDS011;34136;51.022;7.082;2023-02-24T04:11:02;23.60;;;6.85;;
48327;SDS011;34136;51.022;7.082;2023-02-24T04:13:59;24.42;;;6.53;;
48327;SDS011;34136;51.022;7.082;2023-02-24T04:19:42;28.95;;;7.30;;
48327;SDS011;34136;51.022;7.082;2023-02-24T04:22:31;32.17;;;7.47;;
48327;SDS011;34136;51.022;7.082;2023-02-24T04:25:18;26.30;;;7.07;;
48327;SDS011;34136;51.022;7.082;2023-02-24T04:28:07;31.55;;;7.22;;
48327;SDS011;34136;51.022;7.082;2023-02-24T04:30:57;26.50;;;7.60;;
48327;SDS011;34136;51.022;7.082;2023-02-24T04:33:46;27.80;;;9.10;;
48327;SDS011;34136;51.022;7.082;2023-02-24T04:36:33;34.60;;;8.60;;
48327;SDS011;34136;51.022;7.082;2023-02-24T04:39:20;30.48;;;9.75;;
48327;SDS011;34136;51.022;7.082;2023-02-24T04:42:10;30.17;;;8.35;;
48327;SDS011;34136;51.022;7.082;2023-02-24T04:44:56;30.67;;;8.65;;
48327;SDS011;34136;51.022;7.082;2023-02-24T04:47:46;34.30;;;8.38;;
48327;SDS011;34136;51.022;7.082;2023-02-24T04:50:33;31.83;;;8.23;;
48327;SDS011;34136;51.022;7.082;2023-02-24T04:53:21;33.33;;;7.30;;
48327;SDS011;34136;51.022;7.082;2023-02-24T04:56:07;33.55;;;7.75;;
48327;SDS011;34136;51.022;7.082;2023-02-24T04:58:54;28.52;;;7.43;;
48327;SDS011;34136;51.022;7.082;2023-02-24T05:01:41;31.48;;;6.97;;
48327;SDS011;34136;51.022;7.082;2023-02-24T05:04:27;26.80;;;7.05;;
48327;SDS011;34136;51.022;7.082;2023-02-24T05:07:15;26.05;;;7.03;;
48327;SDS011;34136;51.022;7.082;2023-02-24T05:10:01;30.55;;;7.80;;
48327;SDS011;34136;51.022;7.082;2023-02-24T05:12:48;31.25;;;7.75;;
48327;SDS011;34136;51.022;7.082;2023-02-24T05:15:37;19.88;;;5.95;;
48327;SDS011;34136;51.022;7.082;2023-02-24T05:18:25;34.15;;;7.05;;
48327;SDS011;34136;51.022;7.082;2023-02-24T05:21:12;24.73;;;6.55;;
48327;SDS011;34136;51.022;7.082;2023-02-24T05:24:01;30.55;;;7.10;;
48327;SDS011;34136;51.022;7.082;2023-02-24T05:26:47;26.00;;;6.20;;
48327;SDS011;34136;51.022;7.082;2023-02-24T05:29:34;28.35;;;6.72;;
48327;SDS011;34136;51.022;7.082;2023-02-24T05:32:21;31.33;;;6.95;;
48327;SDS011;34136;51.022;7.082;2023-02-24T05:35:08;23.25;;;6.50;;
48327;SDS011;34136;51.022;7.082;2023-02-24T05:37:54;28.73;;;6.57;;
48327;SDS011;34136;51.022;7.082;2023-02-24T05:40:40;24.75;;;7.40;;
48327;SDS011;34136;51.022;7.082;2023-02-24T05:43:26;27.08;;;7.22;;
48327;SDS011;34136;51.022;7.082;2023-02-24T05:46:14;19.88;;;5.88;;
48327;SDS011;34136;51.022;7.082;2023-02-24T05:49:02;29.58;;;6.47;;
48327;SDS011;34136;51.022;7.082;2023-02-24T05:51:50;21.77;;;5.93;;
48327;SDS011;34136;51.022;7.082;2023-02-24T05:54:41;21.50;;;4.97;;
48327;SDS011;34136;51.022;7.082;2023-02-24T05:57:28;23.85;;;6.07;;
48327;SDS011;34136;51.022;7.082;2023-02-24T06:00:14;24.20;;;5.63;;
48327;SDS011;34136;51.022;7.082;2023-02-24T06:03:01;26.30;;;5.38;;
48327;SDS011;34136;51.022;7.082;2023-02-24T06:05:53;23.55;;;5.57;;
48327;SDS011;34136;51.022;7.082;2023-02-24T06:08:40;24.00;;;5.18;;
48327;SDS011;34136;51.022;7.082;2023-02-24T06:11:26;26.63;;;6.03;;
48327;SDS011;34136;51.022;7.082;2023-02-24T06:14:12;17.98;;;4.82;;
48327;SDS011;34136;51.022;7.082;2023-02-24T06:16:59;25.25;;;4.78;;
48327;SDS011;34136;51.022;7.082;2023-02-24T06:19:45;29.95;;;5.80;;
48327;SDS011;34136;51.022;7.082;2023-02-24T06:22:34;24.10;;;5.38;;
48327;SDS011;34136;51.022;7.082;2023-02-24T06:25:20;25.65;;;4.72;;
48327;SDS011;34136;51.022;7.082;2023-02-24T06:28:06;25.67;;;4.68;;
48327;SDS011;34136;51.022;7.082;2023-02-24T06:30:52;23.00;;;5.63;;
48327;SDS011;34136;51.022;7.082;2023-02-24T06:33:39;23.52;;;6.15;;
48327;SDS011;34136;51.022;7.082;2023-02-24T06:36:25;26.00;;;5.00;;
48327;SDS011;34136;51.022;7.082;2023-02-24T06:39:12;26.95;;;5.25;;
48327;SDS011;34136;51.022;7.082;2023-02-24T06:41:58;21.60;;;4.95;;
48327;SDS011;34136;51.022;7.082;2023-02-24T06:44:45;22.40;;;5.40;;
48327;SDS011;34136;51.022;7.082;2023-02-24T06:47:31;25.10;;;5.85;;
48327;SDS011;34136;51.022;7.082;2023-02-24T06:50:18;25.08;;;7.13;;
48327;SDS011;34136;51.022;7.082;2023-02-24T06:53:04;24.65;;;5.82;;
48327;SDS011;34136;51.022;7.082;2023-02-24T06:55:51;27.13;;;5.25;;
48327;SDS011;34136;51.022;7.082;2023-02-24T06:58:37;24.88;;;4.80;;
48327;SDS011;34136;51.022;7.082;2023-02-24T07:01:24;24.33;;;5.07;;
48327;SDS011;34136;51.022;7.082;2023-02-24T07:04:11;16.85;;;5.20;;
48327;SDS011;34136;51.022;7.082;2023-02-24T07:06:58;25.38;;;6.15;;
48327;SDS011;34136;51.022;7.082;2023-02-24T07:09:44;28.23;;;6.93;;
48327;SDS011;34136;51.022;7.082;2023-02-24T07:12:30;30.20;;;6.32;;
48327;SDS011;34136;51.022;7.082;2023-02-24T07:15:16;21.15;;;6.20;;
48327;SDS011;34136;51.022;7.082;2023-02-24T07:18:02;30.27;;;6.97;;
48327;SDS011;34136;51.022;7.082;2023-02-24T07:20:48;31.17;;;8.07;;
48327;SDS011;34136;51.022;7.082;2023-02-24T07:23:35;27.77;;;7.50;;
48327;SDS011;34136;51.022;7.082;2023-02-24T07:26:23;24.88;;;7.38;;
48327;SDS011;34136;51.022;7.082;2023-02-24T07:29:10;29.70;;;7.68;;
48327;SDS011;34136;51.022;7.082;2023-02-24T07:31:57;36.58;;;8.90;;
48327;SDS011;34136;51.022;7.082;2023-02-24T07:34:44;30.30;;;8.63;;
48327;SDS011;34136;51.022;7.082;2023-02-24T07:37:31;27.77;;;7.88;;
48327;SDS011;34136;51.022;7.082;2023-02-24T07:40:17;30.05;;;8.32;;
48327;SDS011;34136;51.022;7.082;2023-02-24T07:43:04;25.27;;;7.10;;
48327;SDS011;34136;51.022;7.082;2023-02-24T07:45:50;21.42;;;6.93;;
48327;SDS011;34136;51.022;7.082;2023-02-24T07:48:37;29.25;;;7.38;;
48327;SDS011;34136;51.022;7.082;2023-02-24T07:51:40;35.88;;;7.70;;
48327;SDS011;34136;51.022;7.082;2023-02-24T07:54:36;24.40;;;5.70;;
48327;SDS011;34136;51.022;7.082;2023-02-24T07:57:30;17.77;;;5.75;;
48327;SDS011;34136;51.022;7.082;2023-02-24T08:00:16;18.95;;;4.57;;
48327;SDS011;34136;51.022;7.082;2023-02-24T08:03:48;25.17;;;4.03;;
48327;SDS011;34136;51.022;7.082;2023-02-24T08:06:39;21.75;;;3.85;;
48327;SDS011;34136;51.022;7.082;2023-02-24T08:09:27;20.75;;;4.53;;
48327;SDS011;34136;51.022;7.082;2023-02-24T08:12:19;17.95;;;4.50;;
48327;SDS011;34136;51.022;7.082;2023-02-24T08:15:07;20.65;;;4.80;;
48327;SDS011;34136;51.022;7.082;2023-02-24T08:17:55;25.88;;;5.22;;
48327;SDS011;34136;51.022;7.082;2023-02-24T08:20:42;26.13;;;4.55;;
48327;SDS011;34136;51.022;7.082;2023-02-24T08:23:28;33.10;;;4.78;;
48327;SDS011;34136;51.022;7.082;2023-02-24T08:26:14;24.15;;;4.90;;
48327;SDS011;34136;51.022;7.082;2023-02-24T08:29:01;25.48;;;4.55;;
48327;SDS011;34136;51.022;7.082;2023-02-24T08:31:47;17.25;;;3.88;;
48327;SDS011;34136;51.022;7.082;2023-02-24T08:34:33;20.80;;;4.97;;
48327;SDS011;34136;51.022;7.082;2023-02-24T08:37:19;19.67;;;3.45;;
48327;SDS011;34136;51.022;7.082;2023-02-24T08:40:06;19.55;;;4.00;;
48327;SDS011;34136;51.022;7.082;2023-02-24T08:42:55;17.50;;;3.15;;
48327;SDS011;34136;51.022;7.082;2023-02-24T08:45:43;23.20;;;5.50;;
48327;SDS011;34136;51.022;7.082;2023-02-24T08:48:34;20.73;;;4.72;;
48327;SDS011;34136;51.022;7.082;2023-02-24T08:51:22;16.27;;;5.05;;
48327;SDS011;34136;51.022;7.082;2023-02-24T08:54:10;25.08;;;4.38;;
48327;SDS011;34136;51.022;7.082;2023-02-24T08:56:59;22.55;;;4.22;;
48327;SDS011;34136;51.022;7.082;2023-02-24T08:59:46;20.98;;;3.78;;
48327;SDS011;34136;51.022;7.082;2023-02-24T09:02:32;23.17;;;4.43;;
48327;SDS011;34136;51.022;7.082;2023-02-24T09:05:18;23.13;;;4.25;;
48327;SDS011;34136;51.022;7.082;2023-02-24T09:08:04;17.00;;;4.30;;
48327;SDS011;34136;51.022;7.082;2023-02-24T09:10:52;24.02;;;4.72;;
48327;SDS011;34136;51.022;7.082;2023-02-24T09:13:39;25.88;;;4.03;;
48327;SDS011;34136;51.022;7.082;2023-02-24T09:16:29;23.30;;;4.40;;
48327;SDS011;34136;51.022;7.082;2023-02-24T09:19:15;23.42;;;6.15;;
48327;SDS011;34136;51.022;7.082;2023-02-24T09:22:01;25.52;;;9.32;;
48327;SDS011;34136;51.022;7.082;2023-02-24T09:24:47;19.92;;;4.88;;
48327;SDS011;34136;51.022;7.082;2023-02-24T09:27:34;18.67;;;6.78;;
48327;SDS011;34136;51.022;7.082;2023-02-24T09:30:21;20.92;;;5.78;;
48327;SDS011;34136;51.022;7.082;2023-02-24T09:33:13;21.58;;;7.43;;
48327;SDS011;34136;51.022;7.082;2023-02-24T09:36:03;18.70;;;5.95;;
48327;SDS011;34136;51.022;7.082;2023-02-24T09:38:58;20.38;;;5.90;;
48327;SDS011;34136;51.022;7.082;2023-02-24T09:41:46;20.27;;;5.45;;
48327;SDS011;34136;51.022;7.082;2023-02-24T09:44:36;15.55;;;5.35;;
48327;SDS011;34136;51.022;7.082;2023-02-24T09:50:25;18.27;;;5.53;;
48327;SDS011;34136;51.022;7.082;2023-02-24T09:57:09;19.48;;;6.82;;
48327;SDS011;34136;51.022;7.082;2023-02-24T10:00:05;16.60;;;5.07;;
48327;SDS011;34136;51.022;7.082;2023-02-24T10:03:17;19.90;;;4.90;;
48327;SDS011;34136;51.022;7.082;2023-02-24T10:12:21;16.20;;;4.82;;
48327;SDS011;34136;51.022;7.082;2023-02-24T10:15:13;14.57;;;4.72;;
48327;SDS011;34136;51.022;7.082;2023-02-24T10:18:13;21.00;;;5.13;;
48327;SDS011;34136;51.022;7.082;2023-02-24T10:24:15;13.63;;;4.93;;
48327;SDS011;34136;51.022;7.082;2023-02-24T10:27:10;20.60;;;5.13;;
48327;SDS011;34136;51.022;7.082;2023-02-24T10:30:13;13.80;;;5.57;;
48327;SDS011;34136;51.022;7.082;2023-02-24T10:33:49;21.13;;;5.75;;
48327;SDS011;34136;51.022;7.082;2023-02-24T10:36:20;18.83;;;5.45;;
48327;SDS011;34136;51.022;7.082;2023-02-24T10:42:00;15.50;;;5.40;;
48327;SDS011;34136;51.022;7.082;2023-02-24T10:44:49;19.10;;;5.55;;
48327;SDS011;34136;51.022;7.082;2023-02-24T10:47:36;16.25;;;6.22;;
48327;SDS011;34136;51.022;7.082;2023-02-24T10:50:25;19.63;;;5.90;;
48327;SDS011;34136;51.022;7.082;2023-02-24T10:53:13;20.65;;;5.63;;
48327;SDS011;34136;51.022;7.082;2023-02-24T10:56:11;15.18;;;5.05;;
48327;SDS011;34136;51.022;7.082;2023-02-24T10:59:03;17.55;;;5.63;;
48327;SDS011;34136;51.022;7.082;2023-02-24T11:02:21;18.90;;;5.18;;
48327;SDS011;34136;51.022;7.082;2023-02-24T11:05:10;17.45;;;5.18;;
48327;SDS011;34136;51.022;7.082;2023-02-24T11:08:11;18.55;;;6.50;;
48327;SDS011;34136;51.022;7.082;2023-02-24T11:11:09;16.65;;;6.55;;
48327;SDS011;34136;51.022;7.082;2023-02-24T11:14:03;17.75;;;6.43;;
48327;SDS011;34136;51.022;7.082;2023-02-24T11:16:51;23.35;;;6.43;;
48327;SDS011;34136;51.022;7.082;2023-02-24T11:22:32;19.20;;;6.05;;
48327;SDS011;34136;51.022;7.082;2023-02-24T11:25:23;18.20;;;6.45;;
48327;SDS011;34136;51.022;7.082;2023-02-24T11:31:33;21.35;;;7.53;;
48327;SDS011;34136;51.022;7.082;2023-02-24T11:41:33;25.70;;;7.25;;
48327;SDS011;34136;51.022;7.082;2023-02-24T11:44:25;20.20;;;8.10;;
48327;SDS011;34136;51.022;7.082;2023-02-24T11:47:33;20.23;;;7.18;;
48327;SDS011;34136;51.022;7.082;2023-02-24T11:53:25;18.00;;;7.68;;
48327;SDS011;34136;51.022;7.082;2023-02-24T11:57:12;24.02;;;7.57;;
48327;SDS011;34136;51.022;7.082;2023-02-24T12:00:13;21.02;;;7.18;;
48327;SDS011;34136;51.022;7.082;2023-02-24T12:03:05;18.65;;;6.35;;
48327;SDS011;34136;51.022;7.082;2023-02-24T12:06:15;22.27;;;6.07;;
48327;SDS011;34136;51.022;7.082;2023-02-24T12:09:27;16.38;;;5.85;;
48327;SDS011;34136;51.022;7.082;2023-02-24T12:15:44;27.80;;;8.82;;
48327;SDS011;34136;51.022;7.082;2023-02-24T12:18:42;22.45;;;8.35;;
48327;SDS011;34136;51.022;7.082;2023-02-24T12:21:35;19.02;;;4.85;;
48327;SDS011;34136;51.022;7.082;2023-02-24T12:24:25;17.77;;;5.67;;
48327;SDS011;34136;51.022;7.082;2023-02-24T12:27:35;15.35;;;5.55;;
48327;SDS011;34136;51.022;7.082;2023-02-24T12:40:19;14.27;;;5.45;;
48327;SDS011;34136;51.022;7.082;2023-02-24T12:52:11;27.85;;;7.43;;
48327;SDS011;34136;51.022;7.082;2023-02-24T12:57:59;16.02;;;6.00;;
48327;SDS011;34136;51.022;7.082;2023-02-24T13:01:24;15.07;;;6.13;;
48327;SDS011;34136;51.022;7.082;2023-02-24T13:04:29;17.17;;;5.22;;
48327;SDS011;34136;51.022;7.082;2023-02-24T13:11:02;15.77;;;5.45;;
48327;SDS011;34136;51.022;7.082;2023-02-24T13:14:37;17.05;;;5.90;;
48327;SDS011;34136;51.022;7.082;2023-02-24T13:19:55;17.38;;;6.25;;
48327;SDS011;34136;51.022;7.082;2023-02-24T13:22:42;18.80;;;8.40;;
48327;SDS011;34136;51.022;7.082;2023-02-24T13:31:11;16.00;;;7.90;;
48327;SDS011;34136;51.022;7.082;2023-02-24T13:33:58;19.80;;;6.90;;
48327;SDS011;34136;51.022;7.082;2023-02-24T13:36:45;24.02;;;7.22;;
48327;SDS011;34136;51.022;7.082;2023-02-24T13:39:33;18.02;;;6.60;;
48327;SDS011;34136;51.022;7.082;2023-02-24T13:42:28;22.00;;;8.32;;
48327;SDS011;34136;51.022;7.082;2023-02-24T13:45:18;21.87;;;7.33;;
48327;SDS011;34136;51.022;7.082;2023-02-24T13:54:52;20.08;;;6.78;;
48327;SDS011;34136;51.022;7.082;2023-02-24T14:04:34;18.05;;;7.25;;
48327;SDS011;34136;51.022;7.082;2023-02-24T14:07:08;16.50;;;7.05;;
48327;SDS011;34136;51.022;7.082;2023-02-24T14:09:57;14.00;;;6.85;;
48327;SDS011;34136;51.022;7.082;2023-02-24T14:12:48;21.00;;;7.85;;
48327;SDS011;34136;51.022;7.082;2023-02-24T14:15:35;17.73;;;6.78;;
48327;SDS011;34136;51.022;7.082;2023-02-24T14:21:25;18.88;;;6.85;;
48327;SDS011;34136;51.022;7.082;2023-02-24T14:25:02;24.20;;;7.13;;
48327;SDS011;34136;51.022;7.082;2023-02-24T14:27:48;17.48;;;6.97;;
48327;SDS011;34136;51.022;7.082;2023-02-24T14:30:38;16.88;;;6.82;;
48327;SDS011;34136;51.022;7.082;2023-02-24T14:33:34;18.42;;;7.47;;
48327;SDS011;34136;51.022;7.082;2023-02-24T14:36:23;15.02;;;7.15;;
48327;SDS011;34136;51.022;7.082;2023-02-24T14:44:54;15.90;;;7.10;;
48327;SDS011;34136;51.022;7.082;2023-02-24T14:47:42;16.08;;;7.65;;
48327;SDS011;34136;51.022;7.082;2023-02-24T14:50:29;20.33;;;8.25;;
48327;SDS011;34136;51.022;7.082;2023-02-24T14:53:16;17.73;;;7.88;;
48327;SDS011;34136;51.022;7.082;2023-02-24T14:56:07;23.20;;;9.23;;
48327;SDS011;34136;51.022;7.082;2023-02-24T14:58:59;16.25;;;7.53;;
48327;SDS011;34136;51.022;7.082;2023-02-24T15:02:00;18.65;;;8.25;;
48327;SDS011;34136;51.022;7.082;2023-02-24T15:04:48;21.52;;;8.88;;
48327;SDS011;34136;51.022;7.082;2023-02-24T15:07:37;18.50;;;8.65;;
48327;SDS011;34136;51.022;7.082;2023-02-24T15:10:26;21.83;;;10.75;;
48327;SDS011;34136;51.022;7.082;2023-02-24T15:13:16;27.17;;;9.25;;
48327;SDS011;34136;51.022;7.082;2023-02-24T15:16:13;23.20;;;8.82;;
48327;SDS011;34136;51.022;7.082;2023-02-24T15:19:25;23.42;;;8.70;;
48327;SDS011;34136;51.022;7.082;2023-02-24T15:22:16;29.13;;;10.18;;
48327;SDS011;34136;51.022;7.082;2023-02-24T15:25:16;22.88;;;10.63;;
48327;SDS011;34136;51.022;7.082;2023-02-24T15:28:25;23.15;;;11.30;;
48327;SDS011;34136;51.022;7.082;2023-02-24T15:31:16;16.33;;;9.60;;
48327;SDS011;34136;51.022;7.082;2023-02-24T15:34:04;21.77;;;10.65;;
48327;SDS011;34136;51.022;7.082;2023-02-24T15:36:51;22.60;;;9.98;;
48327;SDS011;34136;51.022;7.082;2023-02-24T15:39:41;20.08;;;8.80;;
48327;SDS011;34136;51.022;7.082;2023-02-24T15:42:32;22.20;;;8.98;;
48327;SDS011;34136;51.022;7.082;2023-02-24T15:45:33;25.07;;;9.30;;
48327;SDS011;34136;51.022;7.082;2023-02-24T15:48:22;22.33;;;9.15;;
48327;SDS011;34136;51.022;7.082;2023-02-24T15:51:16;17.35;;;8.70;;
48327;SDS011;34136;51.022;7.082;2023-02-24T15:54:18;23.50;;;8.80;;
48327;SDS011;34136;51.022;7.082;2023-02-24T15:57:09;18.55;;;8.35;;
48327;SDS011;34136;51.022;7.082;2023-02-24T15:59:59;25.10;;;8.00;;
48327;SDS011;34136;51.022;7.082;2023-02-24T16:02:45;21.70;;;8.38;;
48327;SDS011;34136;51.022;7.082;2023-02-24T16:05:31;16.55;;;8.35;;
48327;SDS011;34136;51.022;7.082;2023-02-24T16:08:18;23.98;;;10.10;;
48327;SDS011;34136;51.022;7.082;2023-02-24T16:11:06;24.38;;;9.40;;
48327;SDS011;34136;51.022;7.082;2023-02-24T16:13:56;27.27;;;10.63;;
48327;SDS011;34136;51.022;7.082;2023-02-24T16:19:30;20.27;;;9.85;;
48327;SDS011;34136;51.022;7.082;2023-02-24T16:22:16;28.45;;;9.55;;
48327;SDS011;34136;51.022;7.082;2023-02-24T16:25:03;25.13;;;9.98;;
48327;SDS011;34136;51.022;7.082;2023-02-24T16:27:50;24.73;;;8.88;;
48327;SDS011;34136;51.022;7.082;2023-02-24T16:30:36;17.77;;;8.25;;
48327;SDS011;34136;51.022;7.082;2023-02-24T16:33:23;20.38;;;7.57;;
48327;SDS011;34136;51.022;7.082;2023-02-24T16:36:10;19.98;;;7.72;;
48327;SDS011;34136;51.022;7.082;2023-02-24T16:38:57;18.52;;;8.50;;
48327;SDS011;34136;51.022;7.082;2023-02-24T16:41:42;23.10;;;8.40;;
48327;SDS011;34136;51.022;7.082;2023-02-24T16:44:29;16.50;;;8.18;;
48327;SDS011;34136;51.022;7.082;2023-02-24T16:47:16;21.90;;;9.52;;
48327;SDS011;34136;51.022;7.082;2023-02-24T16:50:08;23.83;;;9.20;;
48327;SDS011;34136;51.022;7.082;2023-02-24T16:53:02;23.83;;;8.65;;
48327;SDS011;34136;51.022;7.082;2023-02-24T16:55:48;14.95;;;8.32;;
48327;SDS011;34136;51.022;7.082;2023-02-24T16:58:35;20.63;;;9.73;;
48327;SDS011;34136;51.022;7.082;2023-02-24T17:01:21;25.27;;;11.35;;
48327;SDS011;34136;51.022;7.082;2023-02-24T17:04:07;23.63;;;12.15;;
48327;SDS011;34136;51.022;7.082;2023-02-24T17:06:53;21.67;;;12.65;;
48327;SDS011;34136;51.022;7.082;2023-02-24T17:09:39;19.30;;;11.55;;
48327;SDS011;34136;51.022;7.082;2023-02-24T17:12:26;30.20;;;14.00;;
48327;SDS011;34136;51.022;7.082;2023-02-24T17:15:16;23.42;;;13.65;;
48327;SDS011;34136;51.022;7.082;2023-02-24T17:18:04;26.30;;;13.75;;
48327;SDS011;34136;51.022;7.082;2023-02-24T17:20:51;22.77;;;13.20;;
48327;SDS011;34136;51.022;7.082;2023-02-24T17:23:37;21.52;;;13.77;;
48327;SDS011;34136;51.022;7.082;2023-02-24T17:26:23;28.77;;;15.65;;
48327;SDS011;34136;51.022;7.082;2023-02-24T17:29:10;30.17;;;15.73;;
48327;SDS011;34136;51.022;7.082;2023-02-24T17:31:58;25.73;;;15.82;;
48327;SDS011;34136;51.022;7.082;2023-02-24T17:34:44;27.80;;;15.82;;
48327;SDS011;34136;51.022;7.082;2023-02-24T17:37:30;21.58;;;13.98;;
48327;SDS011;34136;51.022;7.082;2023-02-24T17:40:16;24.88;;;14.30;;
48327;SDS011;34136;51.022;7.082;2023-02-24T17:43:02;19.65;;;12.43;;
48327;SDS011;34136;51.022;7.082;2023-02-24T17:45:48;24.20;;;13.32;;
48327;SDS011;34136;51.022;7.082;2023-02-24T17:48:34;22.35;;;13.55;;
48327;SDS011;34136;51.022;7.082;2023-02-24T17:51:21;24.52;;;13.35;;
48327;SDS011;34136;51.022;7.082;2023-02-24T17:54:07;22.23;;;12.65;;
48327;SDS011;34136;51.022;7.082;2023-02-24T17:56:53;26.27;;;13.68;;
48327;SDS011;34136;51.022;7.082;2023-02-24T17:59:43;25.42;;;13.05;;
48327;SDS011;34136;51.022;7.082;2023-02-24T18:02:38;23.17;;;13.05;;
48327;SDS011;34136;51.022;7.082;2023-02-24T18:05:24;24.17;;;12.90;;
48327;SDS011;34136;51.022;7.082;2023-02-24T18:08:10;22.27;;;13.70;;
48327;SDS011;34136;51.022;7.082;2023-02-24T18:10:57;22.67;;;13.70;;
48327;SDS011;34136;51.022;7.082;2023-02-24T18:13:44;24.88;;;14.45;;
48327;SDS011;34136;51.022;7.082;2023-02-24T18:16:30;27.35;;;15.02;;
48327;SDS011;34136;51.022;7.082;2023-02-24T18:19:16;24.55;;;14.77;;
48327;SDS011;34136;51.022;7.082;2023-02-24T18:22:02;30.85;;;16.23;;
48327;SDS011;34136;51.022;7.082;2023-02-24T18:24:49;27.83;;;15.63;;
48327;SDS011;34136;51.022;7.082;2023-02-24T18:27:35;25.77;;;16.48;;
48327;SDS011;34136;51.022;7.082;2023-02-24T18:30:21;24.35;;;15.10;;
48327;SDS011;34136;51.022;7.082;2023-02-24T18:33:07;26.10;;;15.63;;
48327;SDS011;34136;51.022;7.082;2023-02-24T18:36:00;22.90;;;14.55;;
48327;SDS011;34136;51.022;7.082;2023-02-24T18:38:47;22.10;;;15.05;;
48327;SDS011;34136;51.022;7.082;2023-02-24T18:41:33;24.80;;;14.30;;
48327;SDS011;34136;51.022;7.082;2023-02-24T18:44:38;26.67;;;13.50;;
48327;SDS011;34136;51.022;7.082;2023-02-24T18:47:24;20.15;;;13.05;;
48327;SDS011;34136;51.022;7.082;2023-02-24T18:50:11;21.55;;;13.63;;
48327;SDS011;34136;51.022;7.082;2023-02-24T18:52:58;26.77;;;13.30;;
48327;SDS011;34136;51.022;7.082;2023-02-24T18:55:44;23.73;;;13.68;;
48327;SDS011;34136;51.022;7.082;2023-02-24T18:58:31;19.65;;;11.82;;
48327;SDS011;34136;51.022;7.082;2023-02-24T19:01:19;20.20;;;10.05;;
48327;SDS011;34136;51.022;7.082;2023-02-24T19:04:24;23.35;;;10.85;;